Latest Weather Observations for Carnarvon

IDW60801

Issued at 8:34 pm WST Monday 5 December 2016 (issued every 30 minutes, with the page automatically refreshed every 10 minutes)

About weather observations | Map of weather stations | Latest weather observations for WA | Other Formats
Station Details ID: 006011 Name: CARNARVON AIRPORT Lat: -24.89 Lon: 113.67 Height: 4.0 m
Data from the previous 72 hours. | See also: Recent months at Carnarvon
Date/Time
WST
Temp
°C
App
Temp
°C
Dew
Point
°C
Rel
Hum
%
Delta-T
°C
Wind Press
QNH
hPa
Press
MSL
hPa
Rain since
9am
mm
Dir  Spd
km/h
Gust
km/h
Spd
kts
Gust
kts
05/08:30pm 21.7 15.9 14.9 65 4.0 - 39 48 21 26 1011.7 - 0.0
05/08:00pm 22.0 16.1 14.7 63 4.3 - 39 52 21 28 1011.5 - 0.0
05/07:30pm 22.5 17.9 16.0 66 3.9 - 35 44 19 24 1011.2 - 0.0
05/07:00pm 22.4 17.3 16.7 70 3.5 - 39 50 21 27 1010.8 - 0.0
05/06:30pm 22.9 17.3 16.5 67 3.9 - 41 52 22 28 1010.4 - 0.0
05/06:00pm 23.2 17.1 16.3 65 4.2 - 43 54 23 29 1010.1 1010.1 0.0
05/05:30pm 23.7 17.6 16.7 65 4.3 - 44 61 24 33 1009.8 - 0.0
05/05:27pm 23.5 17.4 16.3 64 4.4 - 43 61 23 33 1009.8 - 0.0
05/05:00pm 23.8 17.6 16.4 63 4.5 - 44 57 24 31 1009.7 - 0.0
05/04:30pm 24.9 19.3 16.6 60 5.1 - 41 54 22 29 1009.8 - 0.0
05/04:00pm 24.3 18.8 16.7 62 4.7 - 41 50 22 27 1009.9 - 0.0
05/03:30pm 25.7 21.0 16.8 58 5.5 - 37 46 20 25 1010.1 - 0.0
05/03:00pm 25.5 20.9 17.1 59 5.2 - 37 46 20 25 1010.2 1010.2 0.0
05/02:30pm 25.9 21.8 16.5 56 5.8 - 33 43 18 23 1010.5 - 0.0
05/02:00pm 26.2 21.4 13.9 46 7.3 - 32 37 17 20 1010.8 - 0.0
05/01:30pm 26.1 21.0 13.7 46 7.3 - 33 43 18 23 1011.1 - 0.0
05/01:00pm 26.1 21.4 14.2 48 7.1 - 32 43 17 23 1011.2 - 0.0
05/12:30pm 25.4 19.8 13.2 46 7.1 - 35 44 19 24 1011.4 - 0.0
05/12:00pm 26.0 20.1 12.5 43 7.8 - 35 44 19 24 1011.7 1011.7 0.0
05/11:30am 25.0 19.1 13.6 49 6.7 - 37 48 20 26 1012.0 - 0.0
05/11:00am 24.7 19.0 14.2 52 6.2 - 37 48 20 26 1012.2 - 0.0
05/10:30am 23.8 18.4 13.9 54 5.8 - 35 44 19 24 1012.3 - 0.0
05/10:00am 23.9 17.2 13.4 51 6.1 - 41 56 22 30 1012.6 - 0.0
05/09:59am 24.6 17.5 13.3 49 6.6 - 43 59 23 32 1012.6 - 0.0
05/09:30am 19.5 13.6 15.8 79 2.2 - 41 57 22 31 1012.8 - 0.0
05/09:22am 17.5 12.1 17.0 97 0.3 - 41 52 22 28 1012.7 - 0.0
05/09:00am 22.7 16.1 13.6 56 5.3 - 41 54 22 29 1012.7 1012.7 0.0
05/08:30am 21.5 14.8 13.5 60 4.6 - 41 54 22 29 1012.9 - 0.0
05/08:00am 21.1 14.1 13.6 62 4.3 - 43 52 23 28 1013.0 - 0.0
05/07:30am 20.7 14.1 13.8 64 4.0 - 41 54 22 29 1012.9 - 0.0
05/07:00am 21.1 15.7 14.0 64 4.1 - 35 44 19 24 1012.7 - 0.0
05/06:30am 20.7 15.8 14.2 66 3.8 - 33 44 18 24 1012.4 - 0.0
05/06:00am 20.0 15.8 14.7 71 3.1 - 30 39 16 21 1012.0 1012.0 0.0
05/05:30am 20.1 16.5 15.2 73 2.9 - 28 35 15 19 1011.7 - 0.0
05/05:00am 20.1 16.1 15.2 73 2.9 - 30 39 16 21 1011.3 - 0.0
05/04:30am 19.8 15.2 14.5 71 3.1 - 32 39 17 21 1011.2 - 0.0
05/04:00am 19.8 15.2 14.5 71 3.1 - 32 43 17 23 1011.1 - 0.0
05/03:30am 20.0 15.2 14.7 71 3.1 - 33 43 18 23 1011.1 - 0.0
05/03:00am 20.2 15.1 14.9 71 3.1 - 35 46 19 25 1011.0 1011.0 0.0
05/02:30am 20.3 15.4 15.2 72 3.0 - 35 44 19 24 1010.7 - 0.0
05/02:00am 20.4 15.4 15.0 71 3.2 - 35 48 19 26 1010.8 - 0.0
05/01:30am 20.5 15.7 14.7 69 3.4 - 33 43 18 23 1010.7 - 0.0
05/01:00am 20.6 16.1 14.8 69 3.4 - 32 43 17 23 1010.6 - 0.0
05/12:30am 20.9 15.9 15.0 69 3.5 - 35 46 19 25 1010.7 - 0.0
05/12:00am 20.8 15.4 15.0 69 3.4 - 37 50 20 27 1011.0 1011.0 0.0
 
Date/Time
WST
Temp
°C
App
Temp
°C
Dew
Point
°C
Rel
Hum
%
Delta-T
°C
Wind Press
QNH
hPa
Press
MSL
hPa
Rain since
9am
mm
Dir  Spd
km/h
Gust
km/h
Spd
kts
Gust
kts
04/11:30pm 21.0 15.4 15.4 70 3.3 - 39 50 21 27 1011.2 - 0.0
04/11:00pm 21.2 16.0 15.5 70 3.4 - 37 48 20 26 1011.2 - 0.0
04/10:30pm 21.3 15.7 15.6 70 3.4 - 39 48 21 26 1011.1 - 0.0
04/10:00pm 21.6 16.3 16.3 72 3.2 - 39 50 21 27 1011.0 - 0.0
04/09:30pm 21.8 16.1 16.2 70 3.4 - 41 56 22 30 1010.8 - 0.0
04/09:00pm 22.0 16.1 15.8 68 3.7 - 41 50 22 27 1010.5 1010.5 0.0
04/08:30pm 22.2 17.2 17.0 72 3.2 - 39 52 21 28 1010.2 - 0.0
04/08:00pm 22.4 17.4 17.0 71 3.3 - 39 48 21 26 1010.0 - 0.0
04/07:30pm 22.7 17.5 16.6 68 3.7 - 39 48 21 26 1009.8 - 0.0
04/07:00pm 23.0 18.5 16.4 66 4.0 - 35 50 19 27 1009.6 - 0.0
04/06:30pm 23.5 18.2 16.3 64 4.4 - 39 50 21 27 1009.2 - 0.0
04/06:00pm 24.2 18.1 16.2 61 4.9 - 43 54 23 29 1008.9 1008.9 0.0
04/05:30pm 24.4 19.1 16.4 61 4.9 - 39 52 21 28 1008.9 - 0.0
04/05:00pm 25.0 20.2 16.7 60 5.1 - 37 50 20 27 1008.8 - 0.0
04/04:30pm 25.2 20.1 16.8 59 5.2 - 39 50 21 27 1008.6 - 0.0
04/04:00pm 25.2 19.4 16.0 56 5.6 - 41 52 22 28 1008.7 - 0.0
04/03:30pm 26.5 21.8 15.9 52 6.5 - 35 44 19 24 1009.1 - 0.0
04/03:00pm 27.4 24.5 19.2 61 5.3 - 33 44 18 24 1009.4 1009.4 0.0
04/02:30pm 26.8 22.1 15.9 51 6.7 - 35 43 19 23 1009.5 - 0.0
04/02:00pm 27.6 21.9 13.0 40 8.6 - 35 44 19 24 1009.7 - 0.0
04/01:30pm 26.5 20.5 13.2 43 7.8 - 37 48 20 26 1009.9 - 0.0
04/01:00pm 26.5 20.8 14.1 46 7.4 - 37 46 20 25 1010.1 - 0.0
04/12:30pm 25.6 19.9 15.2 52 6.3 - 39 48 21 26 1010.3 - 0.0
04/12:00pm 25.7 20.2 14.7 50 6.6 - 37 46 20 25 1010.5 1010.5 0.0
04/11:30am 24.6 19.3 15.3 56 5.6 - 37 48 20 26 1010.9 - 0.0
04/11:00am 24.9 18.9 14.5 52 6.2 - 39 48 21 26 1011.2 - 0.0
04/10:30am 24.7 19.8 14.4 52 6.1 - 33 46 18 25 1011.7 - 0.0
04/10:00am 24.9 20.2 14.3 51 6.3 - 32 44 17 24 1011.8 - 0.0
04/09:30am 24.8 19.6 12.7 47 7.0 - 32 41 17 22 1012.0 - 0.0
04/09:00am 23.9 19.1 12.8 49 6.4 - 30 39 16 21 1012.2 1012.2 0.0
04/08:30am 23.2 17.7 12.3 50 6.2 - 33 43 18 23 1012.2 - 0.0
04/08:00am 22.6 16.3 12.2 51 5.9 - 37 52 20 28 1012.2 - 0.0
04/07:30am 21.9 16.1 12.8 56 5.2 - 35 46 19 25 1012.0 - 0.0
04/07:00am 20.8 15.6 12.9 60 4.5 - 32 41 17 22 1011.9 - 0.0
04/06:30am 19.9 15.7 13.4 66 3.7 - 28 35 15 19 1012.0 - 0.0
04/06:00am 18.6 16.0 13.7 73 2.8 - 20 24 11 13 1011.5 1011.5 0.0
04/05:30am 18.6 16.1 14.1 75 2.6 - 20 28 11 15 1011.0 - 0.0
04/05:00am 18.9 17.2 14.6 76 2.5 - 17 22 9 12 1010.8 - 0.0
04/04:30am 19.2 16.0 14.2 73 2.9 - 24 32 13 17 1010.5 - 0.0
04/04:00am 19.3 15.4 14.3 73 2.9 - 28 33 15 18 1010.4 - 0.0
04/03:30am 19.7 16.4 14.9 74 2.8 - 26 33 14 18 1010.2 - 0.0
04/03:00am 20.2 15.5 14.9 71 3.1 - 33 41 18 22 1010.1 1010.1 0.0
04/02:30am 20.0 14.7 14.3 69 3.3 - 35 44 19 24 1010.1 - 0.0
04/02:00am 20.1 14.9 14.6 70 3.2 - 35 46 19 25 1010.1 - 0.0
04/01:40am 20.2 15.4 14.7 70 3.2 - 33 52 18 28 1010.2 - 0.0
04/01:30am 20.2 14.7 14.7 70 3.2 - 37 48 20 26 1010.3 - 0.0
04/01:00am 20.2 15.2 15.1 72 3.0 - 35 46 19 25 1010.5 - 0.0
04/12:30am 20.1 15.6 15.0 72 3.0 - 32 41 17 22 1010.6 - 0.0
04/12:00am 20.2 15.9 15.5 74 2.8 - 32 41 17 22 1010.7 1010.7 0.0
 
Date/Time
WST
Temp
°C
App
Temp
°C
Dew
Point
°C
Rel
Hum
%
Delta-T
°C
Wind Press
QNH
hPa
Press
MSL
hPa
Rain since
9am
mm
Dir  Spd
km/h
Gust
km/h
Spd
kts
Gust
kts
03/11:30pm 20.4 15.6 15.5 73 2.9 - 35 46 19 25 1010.9 - 0.0
03/11:00pm 20.5 15.7 14.5 68 3.5 - 33 44 18 24 1011.3 - 0.0
03/10:30pm 20.6 16.3 15.4 72 3.1 - 32 41 17 22 1011.6 - 0.0
03/10:00pm 20.8 15.8 15.0 69 3.4 - 35 46 19 25 1011.2 - 0.0
03/09:30pm 20.9 15.8 14.8 68 3.6 - 35 43 19 23 1011.2 - 0.0
03/09:00pm 20.9 15.5 15.0 69 3.5 - 37 48 20 26 1011.0 1011.0 0.0
03/08:30pm 21.1 16.5 15.2 69 3.5 - 33 43 18 23 1010.9 - 0.0
03/08:00pm 21.1 16.2 15.2 69 3.5 - 35 48 19 26 1010.7 - 0.0
03/07:30pm 21.2 15.4 14.9 67 3.7 - 39 50 21 27 1010.3 - 0.0
03/07:00pm 21.6 16.1 14.6 64 4.1 - 37 50 20 27 1009.9 - 0.0
03/06:30pm 22.2 17.2 15.1 64 4.2 - 35 48 19 26 1009.5 - 0.0
03/06:00pm 22.9 17.7 15.6 63 4.4 - 37 48 20 26 1009.4 1009.4 0.0
03/05:30pm 23.5 18.7 15.5 60 4.8 - 35 46 19 25 1009.2 - 0.0
03/05:00pm 23.6 17.9 15.1 59 5.1 - 39 50 21 27 1008.8 - 0.0
03/04:30pm 23.9 17.7 15.0 57 5.3 - 41 52 22 28 1008.7 - 0.0
03/04:00pm 25.0 19.8 15.6 56 5.7 - 37 50 20 27 1008.7 - 0.0
03/03:30pm 24.6 19.9 14.9 54 5.8 - 33 43 18 23 1009.1 - 0.0
03/03:00pm 25.4 20.6 15.5 54 6.0 - 35 44 19 24 1009.2 1009.2 0.0
03/02:30pm 25.8 21.3 15.4 52 6.3 - 33 41 18 22 1009.3 - 0.0
03/02:00pm 25.0 20.2 14.6 52 6.2 - 33 43 18 23 1009.5 - 0.0
03/01:30pm 24.5 20.0 14.8 54 5.8 - 32 39 17 21 1009.6 - 0.0
03/01:00pm 24.4 19.6 14.7 54 5.8 - 33 41 18 22 1009.7 - 0.0
03/12:30pm 24.6 20.0 14.7 54 5.9 - 32 41 17 22 1009.8 - 0.0
03/12:00pm 24.5 21.6 15.2 56 5.6 - 24 32 13 17 1010.2 1010.2 0.0
03/11:30am 24.7 21.7 14.8 54 5.9 - 24 33 13 18 1010.5 - 0.0
03/11:00am 23.3 19.4 14.3 57 5.3 - 28 35 15 19 1010.4 - 0.0
03/10:30am 23.7 20.0 15.0 58 5.2 - 28 37 15 20 1010.5 - 0.0
03/10:00am 23.4 19.2 14.6 57 5.2 - 30 37 16 20 1010.5 - 0.0
03/09:30am 23.5 19.2 14.5 57 5.3 - 30 39 16 21 1010.7 - 0.0
03/09:00am 22.5 18.3 14.7 61 4.6 - 30 37 16 20 1010.9 1010.9 0.0
03/08:30am 22.3 18.2 14.9 63 4.4 - 30 37 16 20 1010.8 - 0.0
03/08:00am 22.0 18.3 14.9 64 4.2 - 28 33 15 18 1010.5 - 0.0
03/07:30am 21.8 18.8 14.9 65 4.1 - 24 32 13 17 1010.3 - 0.0
03/07:00am 21.0 17.5 14.5 66 3.8 - 26 35 14 19 1010.0 - 0.0
03/06:30am 20.7 17.7 14.7 68 3.5 - 24 33 13 18 1009.8 - 0.0
03/06:00am 20.1 18.6 15.2 73 2.9 - 17 24 9 13 1009.6 1009.6 0.0
03/05:30am 19.7 17.0 15.5 77 2.5 - 24 28 13 15 1009.1 - 0.0
03/05:00am 19.4 16.1 15.0 75 2.6 - 26 33 14 18 1008.6 - 0.0
03/04:30am 19.7 16.5 15.3 76 2.6 - 26 35 14 19 1008.6 - 0.0
03/04:00am 19.7 16.2 15.5 77 2.5 - 28 35 15 19 1008.6 - 0.0
03/03:30am 19.8 15.6 15.6 77 2.5 - 32 41 17 22 1008.2 - 0.0
03/03:00am 19.9 15.5 15.7 77 2.5 - 33 43 18 23 1008.0 1008.0 0.0
03/02:30am 20.1 16.1 16.1 78 2.4 - 32 39 17 21 1007.8 - 0.0
03/02:16am 20.2 16.1 16.0 77 2.5 - 32 43 17 23 1007.9 - 0.0
03/02:04am 20.3 16.4 16.5 79 2.3 - 32 37 17 20 1007.8 - 0.0
03/02:00am 20.3 16.8 16.5 79 2.3 - 30 39 16 21 1007.8 - 0.0
03/01:30am 20.2 17.2 16.7 80 2.1 - 28 35 15 19 1007.9 - 0.0
03/01:00am 20.4 18.2 16.8 80 2.2 - 24 35 13 19 1008.1 - 0.0
03/12:30am 20.6 17.6 16.8 79 2.3 - 28 35 15 19 1008.3 - 0.0
03/12:00am 20.8 17.7 16.5 76 2.6 - 28 41 15 22 1008.3 1008.3 0.0
 
Date/Time
WST
Temp
°C
App
Temp
°C
Dew
Point
°C
Rel
Hum
%
Delta-T
°C
Wind Press
QNH
hPa
Press
MSL
hPa
Rain since
9am
mm
Dir  Spd
km/h
Gust
km/h
Spd
kts
Gust
kts
02/11:30pm 20.8 17.3 16.5 76 2.6 - 30 43 16 23 1008.4 - 0.0
02/11:00pm 21.0 17.3 16.9 77 2.5 - 32 41 17 22 1008.6 - 0.0
02/10:30pm 21.3 17.8 17.4 78 2.4 - 32 44 17 24 1008.7 - 0.0
02/10:00pm 21.5 17.9 17.1 76 2.7 - 32 41 17 22 1008.8 - 0.0
02/09:30pm 21.6 18.2 17.6 78 2.5 - 32 43 17 23 1008.8 - 0.0
02/09:00pm 21.8 17.5 17.9 78 2.4 - 37 46 20 25 1008.7 1008.7 0.0

Other Formats:

Comma delimited format used in spreadsheet applications
http://www.bom.gov.au/fwo/IDW60801/IDW60801.94300.axf

JavaScript Object Notation format (JSON) in row-major order
http://www.bom.gov.au/fwo/IDW60801/IDW60801.94300.json